createdAt,value
2022-12-22T00:00:25.360Z,99850.31
2022-12-22T00:03:16.054Z,99837.00
2022-12-22T00:06:06.742Z,99840.75
2022-12-22T00:09:03.574Z,99847.84
2022-12-22T00:11:56.017Z,99842.75
2022-12-22T00:14:46.714Z,99837.25
2022-12-22T00:17:45.600Z,99834.69
2022-12-22T00:20:38.672Z,99826.22
2022-12-22T00:23:29.734Z,99839.75
2022-12-22T00:26:20.312Z,99829.81
2022-12-22T00:29:11.004Z,99832.16
2022-12-22T00:32:02.829Z,99844.00
2022-12-22T00:35:01.639Z,99820.53
2022-12-22T00:37:56.726Z,99848.88
2022-12-22T00:40:47.656Z,99827.19
2022-12-22T00:43:37.909Z,99843.28
2022-12-22T00:46:30.939Z,99828.94
2022-12-22T00:49:21.709Z,99825.53
2022-12-22T00:52:12.453Z,99843.91
2022-12-22T00:55:03.093Z,99843.13
2022-12-22T00:57:54.439Z,99830.00
2022-12-22T01:00:45.174Z,99819.69
2022-12-22T01:03:35.804Z,99827.03
2022-12-22T01:06:29.636Z,99828.84
2022-12-22T01:09:20.377Z,99802.31
2022-12-22T01:12:10.889Z,99802.88
2022-12-22T01:15:01.549Z,99820.41
2022-12-22T01:17:51.907Z,99805.28
2022-12-22T01:20:42.640Z,99824.44
2022-12-22T01:23:33.341Z,99808.34
2022-12-22T01:26:27.970Z,99823.31
2022-12-22T01:29:18.769Z,99817.72
2022-12-22T01:32:09.224Z,99815.81
2022-12-22T01:35:00.532Z,99831.16
2022-12-22T01:37:51.256Z,99819.84
2022-12-22T01:40:43.847Z,99826.06
2022-12-22T01:43:46.621Z,99827.63
2022-12-22T01:46:43.521Z,99823.66
2022-12-22T01:49:37.276Z,99826.22
2022-12-22T01:52:31.056Z,99810.28
2022-12-22T01:55:26.806Z,99820.19
2022-12-22T01:58:17.326Z,99822.78
2022-12-22T02:01:08.656Z,99819.50
2022-12-22T02:03:59.276Z,99800.94
2022-12-22T02:07:00.463Z,99808.91
2022-12-22T02:10:09.070Z,99819.94
2022-12-22T02:13:22.632Z,99812.38
2022-12-22T02:16:33.188Z,99818.19
2022-12-22T02:19:33.985Z,99809.19
2022-12-22T02:23:01.892Z,99825.88
2022-12-22T02:26:16.553Z,99820.19
2022-12-22T02:29:08.267Z,99823.47
2022-12-22T02:32:00.575Z,99828.63
2022-12-22T02:34:51.376Z,99814.53
2022-12-22T02:37:50.667Z,99793.19
2022-12-22T02:41:19.264Z,99804.94
2022-12-22T02:44:35.387Z,99801.06
2022-12-22T02:47:52.988Z,99802.66
2022-12-22T02:51:06.036Z,99791.13
2022-12-22T02:53:58.578Z,99803.59
2022-12-22T02:56:49.250Z,99776.91
2022-12-22T02:59:39.942Z,99794.31
2022-12-22T03:02:32.039Z,99799.13
2022-12-22T03:05:22.688Z,99794.16
2022-12-22T03:08:14.004Z,99804.41
2022-12-22T03:11:04.784Z,99807.75
2022-12-22T03:13:55.694Z,99814.25
2022-12-22T03:16:46.008Z,99824.41
2022-12-22T03:19:36.813Z,99823.13
2022-12-22T03:22:27.564Z,99825.28
2022-12-22T03:25:18.288Z,99809.53
2022-12-22T03:27:50.233Z,99804.06
2022-12-22T03:30:22.123Z,99808.75
2022-12-22T03:32:54.086Z,99813.78
2022-12-22T03:35:26.164Z,99820.56
2022-12-22T03:37:58.002Z,99798.41
2022-12-22T03:40:31.436Z,99825.13
2022-12-22T03:43:22.077Z,99818.94
2022-12-22T03:46:15.885Z,99814.25
2022-12-22T03:49:07.985Z,99774.16
2022-12-22T03:51:45.341Z,99797.53
2022-12-22T03:54:21.231Z,99799.63
2022-12-22T03:56:54.203Z,99806.97
2022-12-22T03:59:26.310Z,99787.78
2022-12-22T04:01:58.679Z,99786.31
2022-12-22T04:04:34.109Z,99806.91
2022-12-22T04:07:06.053Z,99768.25
2022-12-22T04:09:57.949Z,99722.34
2022-12-22T04:12:48.625Z,99709.19
2022-12-22T04:15:25.575Z,99794.97
2022-12-22T04:17:58.597Z,99760.41
2022-12-22T04:20:30.606Z,99787.53
2022-12-22T04:23:02.797Z,99793.94
2022-12-22T04:25:34.801Z,99776.28
2022-12-22T04:28:06.770Z,99777.66
2022-12-22T04:30:38.811Z,99668.50
2022-12-22T04:33:10.787Z,99769.84
2022-12-22T04:35:44.634Z,99771.34
2022-12-22T04:38:16.633Z,99768.44
2022-12-22T04:40:48.538Z,99775.72
2022-12-22T04:43:20.505Z,99784.31
2022-12-22T04:45:54.359Z,99769.97
2022-12-22T04:48:28.237Z,99778.44
2022-12-22T04:51:01.122Z,99768.44
2022-12-22T04:53:33.221Z,99714.81
2022-12-22T04:56:07.834Z,99792.13
2022-12-22T04:58:39.796Z,99762.63
2022-12-22T05:01:14.226Z,99753.22
2022-12-22T05:03:46.829Z,99768.16
2022-12-22T05:06:19.299Z,99755.78
2022-12-22T05:08:51.435Z,99773.03
2022-12-22T05:11:23.615Z,99752.16
2022-12-22T05:13:55.729Z,99769.47
2022-12-22T05:16:27.741Z,99723.72
2022-12-22T05:18:59.716Z,99757.72
2022-12-22T05:21:31.707Z,99723.44
2022-12-22T05:24:04.276Z,99675.19
2022-12-22T05:26:36.199Z,99679.13
2022-12-22T05:29:08.157Z,99728.25
2022-12-22T05:31:46.821Z,99744.66
2022-12-22T05:34:19.225Z,99727.28
2022-12-22T05:36:51.220Z,99734.56
2022-12-22T05:39:23.212Z,99690.88
2022-12-22T05:41:55.175Z,99697.38
2022-12-22T05:44:27.177Z,99659.81
2022-12-22T05:46:59.098Z,99752.22
2022-12-22T05:49:31.108Z,99637.25
2022-12-22T05:52:03.253Z,99722.47
2022-12-22T05:54:35.326Z,99756.78
2022-12-22T05:57:07.326Z,99741.16
2022-12-22T05:59:39.374Z,99779.59
2022-12-22T06:02:11.644Z,99779.47
2022-12-22T06:04:43.674Z,99749.69
2022-12-22T06:07:15.684Z,99704.75
2022-12-22T06:09:47.637Z,99714.25
2022-12-22T06:12:19.627Z,99727.03
2022-12-22T06:14:52.043Z,99766.38
2022-12-22T06:17:24.101Z,99773.47
2022-12-22T06:19:56.104Z,99767.88
2022-12-22T06:22:28.052Z,99744.59
2022-12-22T06:25:00.265Z,99758.72
2022-12-22T06:27:32.228Z,99781.03
2022-12-22T06:30:04.809Z,99779.91
2022-12-22T06:32:38.226Z,99775.84
2022-12-22T06:35:10.921Z,99774.16
2022-12-22T06:37:49.356Z,99774.16
2022-12-22T06:40:21.389Z,99771.44
2022-12-22T06:43:09.593Z,99756.44
2022-12-22T06:45:44.116Z,99773.97
2022-12-22T06:48:16.492Z,99671.88
2022-12-22T06:50:48.640Z,99766.84
2022-12-22T06:53:21.132Z,99792.75
2022-12-22T06:55:54.610Z,99771.59
2022-12-22T06:58:27.083Z,99780.59
2022-12-22T07:00:59.489Z,99761.50
2022-12-22T07:03:31.558Z,99785.72
2022-12-22T07:06:04.783Z,99761.25
2022-12-22T07:08:36.836Z,99677.44
2022-12-22T07:11:13.757Z,99776.00
2022-12-22T07:13:46.537Z,99785.22
2022-12-22T07:16:20.329Z,99776.69
2022-12-22T07:18:52.572Z,99787.03
2022-12-22T07:21:26.693Z,99781.53
2022-12-22T07:23:58.782Z,99762.50
2022-12-22T07:26:31.003Z,99772.09
2022-12-22T07:29:02.950Z,99749.28
2022-12-22T07:31:35.431Z,99731.88
2022-12-22T07:34:07.709Z,99676.00
2022-12-22T07:36:39.939Z,99768.03
2022-12-22T07:39:12.993Z,99768.19
2022-12-22T07:42:03.489Z,99775.88
2022-12-22T07:44:35.462Z,99768.41
2022-12-22T07:47:07.405Z,99757.75
2022-12-22T07:49:58.097Z,99762.81
2022-12-22T07:52:30.019Z,99744.97
2022-12-22T07:55:01.953Z,99661.59
2022-12-22T07:57:36.200Z,99737.22
2022-12-22T08:00:08.904Z,99740.25
2022-12-22T08:02:41.142Z,99755.31
2022-12-22T08:05:13.262Z,99746.31
2022-12-22T08:07:45.571Z,99648.84
2022-12-22T08:10:18.839Z,99739.50
2022-12-22T08:12:51.283Z,99713.16
2022-12-22T08:15:23.250Z,99719.41
2022-12-22T08:17:55.173Z,99716.34
2022-12-22T08:20:27.201Z,99734.44
2022-12-22T08:22:59.964Z,99720.91
2022-12-22T08:25:34.643Z,99676.03
2022-12-22T08:28:06.746Z,99710.50
2022-12-22T08:30:38.925Z,99730.59
2022-12-22T08:33:10.893Z,99734.28
2022-12-22T08:35:43.830Z,99703.38
2022-12-22T08:38:15.864Z,99721.16
2022-12-22T08:40:48.508Z,99724.94
2022-12-22T08:43:22.188Z,99708.50
2022-12-22T08:45:54.297Z,99722.44
2022-12-22T08:48:26.267Z,99701.69
2022-12-22T08:50:58.823Z,99725.91
2022-12-22T08:54:03.251Z,99702.75
2022-12-22T08:56:22.713Z,99718.59
2022-12-22T08:58:54.617Z,99717.84
2022-12-22T09:01:26.738Z,99705.59
2022-12-22T09:03:59.339Z,99708.91
2022-12-22T09:06:38.340Z,99619.75
2022-12-22T09:09:14.153Z,99718.22
2022-12-22T09:11:46.424Z,99701.22
2022-12-22T09:14:20.597Z,99718.00
2022-12-22T09:16:52.653Z,99672.50
2022-12-22T09:19:24.842Z,99696.38
2022-12-22T09:21:57.167Z,99674.88
2022-12-22T09:24:29.311Z,99706.31
2022-12-22T09:27:03.768Z,99669.00
2022-12-22T09:29:38.339Z,99701.09
2022-12-22T09:32:10.359Z,99658.91
2022-12-22T09:34:42.312Z,99635.53
2022-12-22T09:37:16.077Z,99684.78
2022-12-22T09:39:48.768Z,99692.63
2022-12-22T09:42:21.987Z,99689.78
2022-12-22T09:44:54.034Z,99676.34
2022-12-22T09:47:36.382Z,99680.34
2022-12-22T09:50:16.238Z,99671.16
2022-12-22T09:52:51.428Z,99650.59
2022-12-22T09:55:26.378Z,99667.06
2022-12-22T09:57:58.390Z,99654.72
2022-12-22T10:00:30.489Z,99656.06
2022-12-22T10:03:27.914Z,99642.28
2022-12-22T10:06:11.062Z,99646.50
2022-12-22T10:08:43.461Z,99562.75
2022-12-22T10:11:18.165Z,99641.34
2022-12-22T10:13:50.120Z,99613.22
2022-12-22T10:16:27.888Z,99635.72
2022-12-22T10:19:12.628Z,99623.72
2022-12-22T10:21:47.165Z,99608.44
2022-12-22T10:24:28.778Z,99603.72
2022-12-22T10:27:01.976Z,99619.00
2022-12-22T10:29:34.822Z,99584.16
2022-12-22T10:32:16.767Z,99576.50
2022-12-22T10:35:18.069Z,99601.09
2022-12-22T10:37:50.024Z,99581.50
2022-12-22T10:40:23.282Z,99577.28
2022-12-22T10:42:57.788Z,99558.72
2022-12-22T10:45:29.905Z,99547.06
2022-12-22T10:48:02.128Z,99525.16
2022-12-22T10:50:34.172Z,99566.28
2022-12-22T10:53:06.729Z,99588.91
2022-12-22T10:55:39.657Z,99545.16
2022-12-22T10:58:11.628Z,99575.13
2022-12-22T11:00:45.255Z,99551.50
2022-12-22T11:03:31.362Z,99559.88
2022-12-22T11:06:13.053Z,99564.19
2022-12-22T11:08:51.284Z,99552.25
2022-12-22T11:11:38.216Z,99535.81
2022-12-22T11:14:15.752Z,99533.78
2022-12-22T11:16:52.846Z,99514.03
2022-12-22T11:19:46.391Z,99516.31
2022-12-22T11:22:46.033Z,99543.34
2022-12-22T11:25:37.246Z,99538.28
2022-12-22T11:28:12.125Z,99545.34
2022-12-22T11:30:55.497Z,99538.38
2022-12-22T11:33:42.533Z,99532.75
2022-12-22T11:36:34.655Z,99536.81
2022-12-22T11:39:16.719Z,99534.34
2022-12-22T11:42:11.428Z,99515.84
2022-12-22T11:45:09.608Z,99516.25
2022-12-22T11:47:51.179Z,99524.78
2022-12-22T11:51:00.709Z,99513.94
2022-12-22T11:54:15.497Z,99517.94
2022-12-22T11:56:55.775Z,99506.75
2022-12-22T11:59:58.689Z,99466.81
2022-12-22T12:02:59.479Z,99501.25
2022-12-22T12:06:02.678Z,99498.47
2022-12-22T12:08:34.799Z,99496.09
2022-12-22T12:11:09.732Z,99495.44
2022-12-22T12:13:47.795Z,99498.84
2022-12-22T12:16:35.413Z,99498.84
2022-12-22T12:19:31.923Z,99498.13
2022-12-22T12:22:05.831Z,99491.31
2022-12-22T12:25:11.854Z,99483.78
2022-12-22T12:28:04.883Z,99483.41
2022-12-22T12:30:52.633Z,99471.28
2022-12-22T12:33:48.429Z,99459.63
2022-12-22T12:36:32.389Z,99463.09
2022-12-22T12:39:19.735Z,99469.25
2022-12-22T12:42:29.130Z,99460.81
2022-12-22T12:45:02.988Z,99465.88
2022-12-22T12:47:36.803Z,99465.78
2022-12-22T12:50:32.008Z,99459.63
2022-12-22T12:53:08.281Z,99452.56
2022-12-22T12:55:40.216Z,99450.34
2022-12-22T12:58:34.973Z,99439.31
2022-12-22T13:01:12.726Z,99444.38
2022-12-22T13:04:05.285Z,99446.31
2022-12-22T13:06:49.971Z,99449.50
2022-12-22T13:12:55.288Z,99421.50
2022-12-22T13:15:29.556Z,99386.03
2022-12-22T13:18:03.998Z,99403.22
2022-12-22T13:20:37.982Z,99433.16
2022-12-22T13:23:15.785Z,99436.91
2022-12-22T13:25:53.481Z,99402.81
2022-12-22T13:28:27.461Z,99436.19
2022-12-22T13:31:05.672Z,99416.16
2022-12-22T13:33:40.690Z,99413.31
2022-12-22T13:36:22.392Z,99412.59
2022-12-22T13:39:02.686Z,99335.31
2022-12-22T13:41:35.054Z,99405.03
2022-12-22T13:44:10.801Z,99430.19
2022-12-22T13:46:43.526Z,99417.63
2022-12-22T13:49:36.144Z,99422.78
2022-12-22T13:52:15.416Z,99418.75
2022-12-22T13:54:47.899Z,99410.47
2022-12-22T13:57:22.378Z,99426.34
2022-12-22T13:59:55.442Z,99414.59
2022-12-22T14:02:33.657Z,99420.91
2022-12-22T14:05:11.855Z,99425.34
2022-12-22T14:08:04.023Z,99433.88
2022-12-22T14:10:44.134Z,99406.41
2022-12-22T14:13:22.795Z,99419.34
2022-12-22T14:16:05.901Z,99394.56
2022-12-22T14:18:38.710Z,99371.97
2022-12-22T14:21:12.362Z,99406.16
2022-12-22T14:23:44.529Z,99372.06
2022-12-22T14:26:24.264Z,99405.78
2022-12-22T14:28:57.313Z,99396.88
2022-12-22T14:31:29.555Z,99380.44
2022-12-22T14:34:05.654Z,99337.44
2022-12-22T14:36:46.316Z,99370.97
2022-12-22T14:39:24.151Z,99370.41
2022-12-22T14:41:59.026Z,99378.97
2022-12-22T14:44:34.619Z,99359.84
2022-12-22T14:47:13.115Z,99365.34
2022-12-22T14:50:05.140Z,99357.81
2022-12-22T14:52:45.484Z,99357.72
2022-12-22T14:55:31.426Z,99354.97
2022-12-22T14:58:12.629Z,99337.59
2022-12-22T15:00:47.118Z,99326.41
2022-12-22T15:03:25.152Z,99345.41
2022-12-22T15:05:57.480Z,99336.59
2022-12-22T15:08:43.107Z,99320.25
2022-12-22T15:11:19.876Z,99347.69
2022-12-22T15:13:54.329Z,99346.03
2022-12-22T15:16:26.525Z,99334.34
2022-12-22T15:18:58.836Z,99334.94
2022-12-22T15:21:31.165Z,99311.97
2022-12-22T15:24:03.845Z,99334.28
2022-12-22T15:26:38.057Z,99341.56
2022-12-22T15:29:10.161Z,99330.63
2022-12-22T15:31:43.512Z,99334.94
2022-12-22T15:34:31.029Z,99331.84
2022-12-22T15:37:03.000Z,99312.53
2022-12-22T15:39:34.986Z,99319.63
2022-12-22T15:42:07.112Z,99309.03
2022-12-22T15:44:39.534Z,99330.34
2022-12-22T15:47:13.014Z,99325.31
2022-12-22T15:49:45.111Z,99303.28
2022-12-22T15:52:17.524Z,99313.91
2022-12-22T15:54:49.669Z,99325.09
2022-12-22T15:57:21.500Z,99317.75
2022-12-22T15:59:53.498Z,99319.50
2022-12-22T16:02:25.592Z,99252.38
2022-12-22T16:04:57.896Z,99304.53
2022-12-22T16:07:31.584Z,99288.09
2022-12-22T16:10:04.685Z,99251.16
2022-12-22T16:12:37.775Z,99238.75
2022-12-22T16:15:14.209Z,99284.06
2022-12-22T16:17:46.167Z,99205.47
2022-12-22T16:20:18.155Z,99275.22
2022-12-22T16:22:52.459Z,99228.03
2022-12-22T16:25:34.268Z,99303.41
2022-12-22T16:28:07.170Z,99302.66
2022-12-22T16:30:39.694Z,99299.44
2022-12-22T16:33:12.957Z,99286.69
2022-12-22T16:35:45.094Z,99291.91
2022-12-22T16:38:19.210Z,99215.31
2022-12-22T16:40:53.750Z,99272.16
2022-12-22T16:43:51.493Z,99293.75
2022-12-22T16:46:24.291Z,99293.75
2022-12-22T16:49:02.391Z,99280.59
2022-12-22T16:51:34.943Z,99271.75
2022-12-22T16:54:06.878Z,99286.47
2022-12-22T16:56:39.445Z,99274.91
2022-12-22T16:59:11.482Z,99165.97
2022-12-22T17:01:52.667Z,99289.19
2022-12-22T17:04:32.857Z,99285.41
2022-12-22T17:07:06.823Z,99253.09
2022-12-22T17:09:42.942Z,99284.31
2022-12-22T17:12:35.151Z,99292.19
2022-12-22T17:15:17.484Z,99278.56
2022-12-22T17:17:49.625Z,99254.00
2022-12-22T17:20:24.041Z,99279.88
2022-12-22T17:22:59.989Z,99261.78
2022-12-22T17:25:32.211Z,99255.81
2022-12-22T17:28:04.397Z,99259.22
2022-12-22T17:30:36.662Z,99267.22
2022-12-22T17:33:16.216Z,99260.38
2022-12-22T17:35:48.316Z,99265.06
2022-12-22T17:38:22.560Z,99252.09
2022-12-22T17:40:54.766Z,99163.84
2022-12-22T17:43:26.700Z,99211.78
2022-12-22T17:45:58.733Z,99225.47
2022-12-22T17:48:30.705Z,99233.25
2022-12-22T17:51:02.775Z,99242.50
2022-12-22T17:53:40.599Z,99186.88
2022-12-22T17:56:18.836Z,99166.88
2022-12-22T17:58:51.067Z,99241.72
2022-12-22T18:01:29.546Z,99248.25
2022-12-22T18:04:01.730Z,99239.81
2022-12-22T18:06:35.935Z,99237.00
2022-12-22T18:09:15.576Z,99232.94
2022-12-22T18:11:48.841Z,99217.91
2022-12-22T18:14:23.242Z,99247.00
2022-12-22T18:16:55.399Z,99210.03
2022-12-22T18:19:27.403Z,99133.06
2022-12-22T18:21:59.359Z,99208.03
2022-12-22T18:24:31.276Z,99210.81
2022-12-22T18:27:03.292Z,99221.06
2022-12-22T18:29:35.364Z,99208.34
2022-12-22T18:32:09.628Z,99212.38
2022-12-22T18:34:41.915Z,99213.94
2022-12-22T18:37:16.890Z,99214.69
2022-12-22T18:39:48.891Z,99219.72
2022-12-22T18:42:23.067Z,99222.84
2022-12-22T18:44:55.031Z,99196.97
2022-12-22T18:47:27.009Z,99197.06
2022-12-22T18:50:03.160Z,99213.41
2022-12-22T18:52:35.211Z,99176.78
2022-12-22T18:55:15.836Z,99213.69
2022-12-22T18:57:49.163Z,99202.22
2022-12-22T19:00:28.087Z,99205.44
2022-12-22T19:03:01.654Z,99218.56
2022-12-22T19:05:33.982Z,99216.81
2022-12-22T19:08:05.967Z,99164.72
2022-12-22T19:10:41.384Z,99223.78
2022-12-22T19:13:30.113Z,99213.78
2022-12-22T19:16:02.530Z,99191.69
2022-12-22T19:18:34.609Z,99196.81
2022-12-22T19:21:06.811Z,99175.16
2022-12-22T19:23:38.772Z,99168.72
2022-12-22T19:26:22.805Z,99199.28
2022-12-22T19:28:57.503Z,99189.13
2022-12-22T19:31:32.762Z,99169.03
2022-12-22T19:34:10.630Z,99190.38
2022-12-22T19:36:42.849Z,99124.72
2022-12-22T19:39:14.813Z,99152.09
2022-12-22T19:41:55.059Z,99187.47
2022-12-22T19:44:29.965Z,99184.16
2022-12-22T19:47:03.191Z,99184.72
2022-12-22T19:49:35.212Z,99165.47
2022-12-22T19:52:09.932Z,99117.69
2022-12-22T19:54:41.888Z,99164.94
2022-12-22T19:57:20.656Z,99162.16
2022-12-22T19:59:54.551Z,99129.06
2022-12-22T20:02:32.617Z,99192.63
2022-12-22T20:05:11.596Z,99180.88
2022-12-22T20:07:47.008Z,99170.63
2022-12-22T20:10:19.876Z,99183.91
2022-12-22T20:12:54.579Z,99188.13
2022-12-22T20:15:38.335Z,99181.19
2022-12-22T20:18:22.450Z,99175.13
2022-12-22T20:21:06.079Z,99178.31
2022-12-22T20:23:39.522Z,99137.50
2022-12-22T20:26:18.057Z,99158.78
2022-12-22T20:28:50.250Z,99103.69
2022-12-22T20:31:24.439Z,99155.66
2022-12-22T20:33:56.515Z,99158.16
2022-12-22T20:36:32.230Z,99155.94
2022-12-22T20:39:12.892Z,99160.88
2022-12-22T20:41:52.321Z,99150.81
2022-12-22T20:44:25.339Z,99147.13
2022-12-22T20:46:57.327Z,99123.22
2022-12-22T20:49:29.326Z,99146.22
2022-12-22T20:52:01.319Z,99142.19
2022-12-22T20:54:33.329Z,99115.59
2022-12-22T20:57:05.375Z,99130.72
2022-12-22T20:59:37.548Z,99143.41
2022-12-22T21:02:24.908Z,99143.47
2022-12-22T21:04:57.072Z,99147.13
2022-12-22T21:07:29.156Z,99134.03
2022-12-22T21:10:01.109Z,99150.34
2022-12-22T21:12:33.117Z,99120.09
2022-12-22T21:15:05.576Z,99172.97
2022-12-22T21:17:38.532Z,99105.63
2022-12-22T21:20:19.759Z,99098.72
2022-12-22T21:22:51.856Z,99164.16
2022-12-22T21:25:25.236Z,99155.53
2022-12-22T21:27:59.351Z,99149.84
2022-12-22T21:30:31.573Z,99143.81
2022-12-22T21:33:03.650Z,99131.16
2022-12-22T21:35:38.181Z,99135.91
2022-12-22T21:38:18.168Z,99148.31
2022-12-22T21:40:53.869Z,99133.25
2022-12-22T21:43:26.288Z,99139.47
2022-12-22T21:45:58.346Z,99107.16
2022-12-22T21:48:30.394Z,99111.09
2022-12-22T21:51:02.514Z,99143.22
2022-12-22T21:53:34.475Z,99121.59
2022-12-22T21:56:17.019Z,99118.13
2022-12-22T21:58:49.013Z,99091.84
2022-12-22T22:01:21.157Z,99131.22
2022-12-22T22:03:53.193Z,99126.38
2022-12-22T22:06:25.218Z,99142.84
2022-12-22T22:08:57.188Z,99103.81
2022-12-22T22:11:29.168Z,99133.91
2022-12-22T22:14:01.128Z,99120.16
2022-12-22T22:16:33.204Z,99127.59
2022-12-22T22:19:05.178Z,99134.28
2022-12-22T22:21:37.144Z,99135.44
2022-12-22T22:24:09.218Z,99132.53
2022-12-22T22:26:41.519Z,99078.72
2022-12-22T22:29:13.696Z,99125.66
2022-12-22T22:31:45.822Z,99094.41
2022-12-22T22:34:17.884Z,99103.09
2022-12-22T22:36:51.614Z,99119.88
2022-12-22T22:39:23.872Z,99117.59
2022-12-22T22:41:55.903Z,99113.66
2022-12-22T22:44:28.014Z,99103.94
2022-12-22T22:47:00.514Z,99090.28
2022-12-22T22:49:32.535Z,99123.72
2022-12-22T22:52:04.644Z,99094.97
2022-12-22T22:54:37.208Z,99112.09
2022-12-22T22:57:09.157Z,99104.47
2022-12-22T22:59:41.304Z,99124.75
2022-12-22T23:02:15.118Z,99124.53
2022-12-22T23:04:47.724Z,99086.38
2022-12-22T23:07:19.723Z,99105.69
2022-12-22T23:09:51.593Z,99123.63
2022-12-22T23:12:23.544Z,99064.38
2022-12-22T23:14:55.567Z,99093.59
2022-12-22T23:17:27.730Z,99049.97
2022-12-22T23:20:00.127Z,99104.19
2022-12-22T23:22:32.110Z,99112.81
2022-12-22T23:25:04.599Z,99096.69
2022-12-22T23:27:36.538Z,99114.38
2022-12-22T23:30:09.620Z,99103.47
2022-12-22T23:32:41.583Z,99121.38
2022-12-22T23:35:13.545Z,99104.88
2022-12-22T23:37:45.481Z,99032.22
2022-12-22T23:40:50.644Z,99108.16
2022-12-22T23:43:12.346Z,99126.09
2022-12-22T23:45:44.314Z,99109.78
2022-12-22T23:48:16.912Z,99128.34
2022-12-22T23:50:49.142Z,99124.38
2022-12-22T23:53:21.163Z,99074.16
2022-12-22T23:55:53.106Z,99123.94
2022-12-22T23:58:25.336Z,99099.09
